Time;durP1;ratioP1;P1;durP2;ratioP2;P2;SDS_P1;SDS_P2;PMS_P1;PMS_P2;Temp;Humidity;BMP_temperature;BMP_pressure;BME280_temperature;BME280_humidity;BME280_pressure;Samples;Min_cycle;Max_cycle;Signal;HPM_P1;HPM_P2
2022/08/07 00:00:26;;;;;;;0.10;0.10;;;17.30;99.90;;;;;;5071828;28;20191;-79
2022/08/07 00:02:54;;;;;;;0.10;0.10;;;17.30;99.90;;;;;;5070535;28;20218;-80
2022/08/07 00:05:20;;;;;;;0.10;0.10;;;17.20;99.90;;;;;;5072290;28;20185;-79
2022/08/07 00:07:46;;;;;;;0.43;0.20;;;17.30;99.90;;;;;;5068961;28;20188;-79
2022/08/07 00:10:12;;;;;;;0.20;0.20;;;17.20;99.90;;;;;;5068572;28;20201;-79
2022/08/07 00:12:37;;;;;;;0.10;0.10;;;17.20;99.90;;;;;;5064239;28;20204;-79
2022/08/07 00:15:03;;;;;;;0.20;0.20;;;17.20;99.90;;;;;;5065640;28;20185;-79
2022/08/07 00:17:29;;;;;;;0.17;0.17;;;17.20;99.90;;;;;;5069643;28;20264;-80
2022/08/07 00:19:54;;;;;;;0.20;0.20;;;17.10;99.90;;;;;;5067607;28;20695;-80
2022/08/07 00:22:20;;;;;;;0.10;0.10;;;17.20;99.90;;;;;;5060940;28;20235;-80
2022/08/07 00:24:45;;;;;;;0.10;0.10;;;17.20;99.90;;;;;;5064257;28;20192;-80
2022/08/07 00:27:11;;;;;;;0.10;0.10;;;17.20;99.90;;;;;;5057819;28;20185;-79
2022/08/07 00:29:36;;;;;;;0.20;0.20;;;17.20;99.90;;;;;;5061504;28;20199;-79
2022/08/07 00:32:03;;;;;;;0.10;0.10;;;17.10;99.90;;;;;;5068096;28;20705;-79
2022/08/07 00:34:29;;;;;;;0.20;0.20;;;17.00;99.90;;;;;;5067009;28;20318;-80
2022/08/07 00:36:55;;;;;;;0.10;0.10;;;17.10;99.90;;;;;;5067455;28;20263;-79
2022/08/07 00:39:20;;;;;;;0.20;0.20;;;17.00;99.90;;;;;;5070543;28;20267;-79
2022/08/07 00:41:51;;;;;;;0.10;0.10;;;17.10;99.90;;;;;;5058088;28;20189;-79
2022/08/07 00:44:17;;;;;;;0.10;0.10;;;17.10;99.90;;;;;;5065850;28;20201;-79
2022/08/07 00:46:42;;;;;;;0.20;0.20;;;17.10;99.90;;;;;;5072809;28;20672;-79
2022/08/07 00:49:08;;;;;;;0.10;0.10;;;17.00;99.90;;;;;;5066552;28;20196;-79
2022/08/07 00:51:34;;;;;;;0.20;0.20;;;17.00;99.90;;;;;;5067464;28;20201;-79
2022/08/07 00:54:00;;;;;;;0.20;0.20;;;17.00;99.90;;;;;;5069978;28;20290;-80
2022/08/07 00:56:27;;;;;;;0.20;0.20;;;17.00;99.90;;;;;;5064407;28;20205;-79
2022/08/07 00:58:53;;;;;;;0.10;0.10;;;17.00;99.90;;;;;;5090502;28;20775;-79
2022/08/07 01:01:19;;;;;;;0.10;0.10;;;17.00;99.90;;;;;;5059091;28;20264;-79
2022/08/07 01:03:45;;;;;;;0.10;0.10;;;17.00;99.90;;;;;;5067219;28;20243;-79
2022/08/07 01:06:11;;;;;;;0.30;0.30;;;16.90;99.90;;;;;;5065485;28;20756;-79
2022/08/07 01:08:38;;;;;;;0.20;0.20;;;16.90;99.90;;;;;;5066113;28;20192;-79
2022/08/07 01:11:04;;;;;;;0.20;0.20;;;16.90;99.90;;;;;;5057427;28;20207;-79
2022/08/07 01:13:29;;;;;;;0.20;0.20;;;16.80;99.90;;;;;;5057506;28;20686;-79
2022/08/07 01:15:57;;;;;;;0.20;0.20;;;16.80;99.90;;;;;;5066091;28;20180;-79
2022/08/07 01:18:23;;;;;;;0.10;0.10;;;16.80;99.90;;;;;;5061106;28;20175;-80
2022/08/07 01:21:11;;;;;;;0.10;0.10;;;16.80;99.90;;;;;;5073982;28;20200;-79
2022/08/07 01:23:37;;;;;;;0.10;0.10;;;16.70;99.90;;;;;;5051447;28;20639;-79
2022/08/07 01:26:03;;;;;;;0.10;0.10;;;16.70;99.90;;;;;;5088721;28;20192;-80
2022/08/07 01:28:29;;;;;;;0.20;0.20;;;16.70;99.90;;;;;;5056525;28;20185;-79
2022/08/07 01:30:56;;;;;;;0.20;0.20;;;16.70;99.90;;;;;;5064231;28;20204;-79
2022/08/07 01:33:22;;;;;;;0.20;0.20;;;16.70;99.90;;;;;;5074747;28;20208;-79
2022/08/07 01:35:48;;;;;;;0.10;0.10;;;16.60;99.90;;;;;;5069092;28;20176;-79
2022/08/07 01:38:13;;;;;;;0.17;0.17;;;16.60;99.90;;;;;;5074827;28;20250;-80
2022/08/07 01:40:39;;;;;;;0.10;0.10;;;16.60;99.90;;;;;;5066473;28;20246;-80
2022/08/07 01:43:06;;;;;;;0.10;0.10;;;16.60;99.90;;;;;;5075960;28;20216;-79
2022/08/07 01:45:32;;;;;;;0.20;0.20;;;16.60;99.90;;;;;;5060843;28;20182;-80
2022/08/07 01:47:58;;;;;;;0.20;0.20;;;16.60;99.90;;;;;;5058949;28;20288;-80
2022/08/07 01:50:26;;;;;;;0.20;0.20;;;16.60;99.90;;;;;;5062264;28;20201;-80
2022/08/07 01:52:54;;;;;;;0.10;0.10;;;16.60;99.90;;;;;;5069960;28;20295;-80
2022/08/07 01:55:25;;;;;;;0.20;0.20;;;16.60;99.90;;;;;;5066950;28;20188;-80
2022/08/07 01:57:54;;;;;;;0.20;0.20;;;16.60;99.90;;;;;;5064813;28;20184;-80
2022/08/07 02:00:19;;;;;;;0.10;0.10;;;16.50;99.90;;;;;;5069001;28;20206;-79
2022/08/07 02:02:55;;;;;;;1.10;0.87;;;16.50;99.90;;;;;;5065745;28;20664;-79
2022/08/07 02:05:43;;;;;;;0.10;0.10;;;16.50;99.90;;;;;;5065167;28;20264;-80
2022/08/07 02:08:12;;;;;;;0.10;0.10;;;16.40;99.90;;;;;;5065753;28;20236;-80
2022/08/07 02:10:39;;;;;;;0.13;0.13;;;16.50;99.90;;;;;;5072495;28;20660;-80
2022/08/07 02:13:05;;;;;;;0.10;0.10;;;16.40;99.90;;;;;;5061439;28;20230;-79
2022/08/07 02:15:32;;;;;;;0.20;0.20;;;16.40;99.90;;;;;;5090453;28;20190;-79
2022/08/07 02:18:00;;;;;;;0.10;0.10;;;16.40;99.90;;;;;;5066020;28;20179;-80
2022/08/07 02:20:26;;;;;;;0.10;0.10;;;16.40;99.90;;;;;;5067524;28;20194;-80
2022/08/07 02:22:56;;;;;;;0.10;0.10;;;16.40;99.90;;;;;;5054910;28;20205;-79
2022/08/07 02:25:24;;;;;;;0.20;0.20;;;16.40;99.90;;;;;;5061714;28;20188;-80
2022/08/07 02:27:51;;;;;;;0.10;0.10;;;16.40;99.90;;;;;;5074101;28;20562;-80
2022/08/07 02:30:17;;;;;;;0.10;0.10;;;16.40;99.90;;;;;;5070447;28;20197;-80
2022/08/07 02:32:43;;;;;;;0.20;0.20;;;16.40;99.90;;;;;;5065282;28;20209;-80
2022/08/07 02:35:09;;;;;;;0.13;0.13;;;16.30;99.90;;;;;;5062464;28;20224;-79
2022/08/07 02:37:38;;;;;;;0.53;0.30;;;16.40;99.90;;;;;;5070091;28;20180;-80
2022/08/07 02:40:07;;;;;;;0.30;0.30;;;16.30;99.90;;;;;;5055874;28;20185;-80
2022/08/07 02:42:33;;;;;;;0.10;0.10;;;16.30;99.90;;;;;;5075744;28;20255;-80
2022/08/07 02:45:04;;;;;;;0.20;0.20;;;16.30;99.90;;;;;;5057331;28;20186;-80
2022/08/07 02:47:30;;;;;;;0.10;0.10;;;16.30;99.90;;;;;;5062353;28;20205;-79
2022/08/07 02:49:56;;;;;;;0.10;0.10;;;16.30;99.90;;;;;;5064659;28;20276;-79
2022/08/07 02:52:38;;;;;;;0.10;0.10;;;16.30;99.90;;;;;;5066403;28;20180;-79
2022/08/07 02:55:11;;;;;;;0.13;0.13;;;16.20;99.90;;;;;;5061908;28;20280;-80
2022/08/07 02:57:38;;;;;;;0.10;0.10;;;16.20;99.90;;;;;;5072289;28;20174;-79
2022/08/07 03:00:05;;;;;;;0.13;0.13;;;16.20;99.90;;;;;;5070735;28;20271;-79
2022/08/07 03:02:32;;;;;;;0.10;0.10;;;16.20;99.90;;;;;;5087740;28;20199;-79
2022/08/07 03:05:00;;;;;;;0.20;0.20;;;16.10;99.90;;;;;;5070450;28;20183;-79
2022/08/07 03:07:26;;;;;;;0.30;0.30;;;16.10;99.90;;;;;;5063761;28;20211;-79
2022/08/07 03:09:53;;;;;;;0.10;0.10;;;16.10;99.90;;;;;;5068432;28;20188;-79
2022/08/07 03:12:19;;;;;;;0.30;0.30;;;16.10;99.90;;;;;;5062428;28;20219;-80
2022/08/07 03:14:44;;;;;;;0.10;0.10;;;16.00;99.90;;;;;;5067864;28;20189;-79
2022/08/07 03:17:10;;;;;;;0.20;0.20;;;16.10;99.90;;;;;;5055036;28;20239;-79
2022/08/07 03:19:36;;;;;;;0.10;0.10;;;16.00;99.90;;;;;;5070011;28;20184;-79
2022/08/07 03:22:06;;;;;;;0.20;0.20;;;16.00;99.90;;;;;;5068464;28;20185;-80
2022/08/07 03:24:32;;;;;;;0.20;0.20;;;16.10;99.90;;;;;;5060759;28;20187;-79
2022/08/07 03:27:02;;;;;;;0.20;0.20;;;16.10;99.90;;;;;;5067785;28;20242;-79
2022/08/07 03:29:41;;;;;;;0.20;0.20;;;16.10;99.90;;;;;;5058998;28;20551;-79
2022/08/07 03:32:10;;;;;;;0.13;0.13;;;16.00;99.90;;;;;;5061791;28;20184;-79
2022/08/07 03:34:37;;;;;;;0.20;0.20;;;16.00;99.90;;;;;;5058489;28;20274;-79
2022/08/07 03:37:04;;;;;;;0.13;0.13;;;16.00;99.90;;;;;;5066347;28;20241;-80
2022/08/07 03:39:33;;;;;;;0.20;0.20;;;16.00;99.90;;;;;;5063064;28;20183;-79
2022/08/07 03:42:02;;;;;;;0.30;0.30;;;15.90;99.90;;;;;;5057938;28;20196;-79
2022/08/07 03:44:27;;;;;;;0.63;0.23;;;15.90;99.90;;;;;;5081236;28;20209;-79
2022/08/07 03:46:53;;;;;;;0.37;0.37;;;15.90;99.90;;;;;;5063873;28;20670;-79
2022/08/07 03:49:19;;;;;;;0.10;0.10;;;15.90;99.90;;;;;;5060283;28;20202;-79
2022/08/07 03:51:46;;;;;;;0.10;0.10;;;15.90;99.90;;;;;;5063651;28;20288;-80
2022/08/07 03:54:12;;;;;;;0.17;0.17;;;15.90;99.90;;;;;;5052920;28;20332;-79
2022/08/07 03:56:39;;;;;;;0.20;0.20;;;15.90;99.90;;;;;;5070590;28;20928;-79
2022/08/07 03:59:05;;;;;;;0.10;0.10;;;15.90;99.90;;;;;;5059905;28;20189;-80
2022/08/07 04:01:32;;;;;;;0.27;0.23;;;15.90;99.90;;;;;;5064682;28;20185;-79
2022/08/07 04:03:58;;;;;;;0.23;0.23;;;15.90;99.90;;;;;;5062320;28;20216;-79
2022/08/07 04:06:24;;;;;;;0.10;0.10;;;15.90;99.90;;;;;;5068730;28;20213;-79
2022/08/07 04:08:51;;;;;;;0.10;0.10;;;15.90;99.90;;;;;;5065222;28;20280;-79
2022/08/07 04:11:16;;;;;;;0.97;0.97;;;15.90;99.90;;;;;;5066695;28;20214;-80
2022/08/07 04:13:45;;;;;;;0.10;0.10;;;16.00;99.90;;;;;;5068508;28;20207;-79
2022/08/07 04:16:11;;;;;;;0.20;0.20;;;16.00;99.90;;;;;;5070970;28;20183;-79
2022/08/07 04:18:37;;;;;;;0.10;0.10;;;16.00;99.90;;;;;;5065465;28;20176;-80
2022/08/07 04:21:03;;;;;;;0.10;0.10;;;16.20;99.90;;;;;;5074259;28;20275;-79
2022/08/07 04:23:30;;;;;;;0.10;0.10;;;16.20;99.90;;;;;;5071867;28;20280;-79
2022/08/07 04:25:56;;;;;;;0.20;0.20;;;16.30;99.90;;;;;;5092921;28;20577;-79
2022/08/07 04:28:21;;;;;;;0.20;0.20;;;16.40;99.90;;;;;;5082741;28;20178;-79
2022/08/07 04:30:50;;;;;;;0.10;0.10;;;16.40;99.90;;;;;;5076880;28;20647;-79
2022/08/07 04:33:17;;;;;;;0.10;0.10;;;16.60;99.90;;;;;;5060087;28;20199;-80
2022/08/07 04:35:46;;;;;;;0.20;0.20;;;16.50;99.90;;;;;;5091063;28;20189;-79
2022/08/07 04:38:12;;;;;;;0.20;0.20;;;16.40;99.90;;;;;;5067924;28;20185;-80
2022/08/07 04:40:39;;;;;;;0.10;0.10;;;16.30;99.90;;;;;;5078718;28;20184;-79
2022/08/07 04:43:05;;;;;;;0.13;0.13;;;16.30;99.90;;;;;;5080338;28;20323;-79
2022/08/07 04:45:51;;;;;;;0.20;0.20;;;16.20;99.90;;;;;;5075613;28;20221;-79
2022/08/07 04:48:28;;;;;;;0.10;0.10;;;16.20;99.90;;;;;;5076359;28;20192;-79
2022/08/07 04:51:07;;;;;;;0.20;0.20;;;16.10;99.90;;;;;;5077389;28;20207;-79
2022/08/07 04:53:48;;;;;;;0.10;0.10;;;16.20;99.90;;;;;;5071030;28;20203;-79
2022/08/07 04:56:17;;;;;;;0.10;0.10;;;16.30;99.90;;;;;;5069252;28;20184;-80
2022/08/07 04:58:50;;;;;;;0.20;0.20;;;16.40;99.90;;;;;;5094545;28;20181;-79
2022/08/07 05:01:43;;;;;;;0.17;0.17;;;16.50;99.90;;;;;;5062897;28;20182;-79
2022/08/07 05:04:17;;;;;;;0.30;0.30;;;16.50;99.90;;;;;;5075529;28;20212;-79
2022/08/07 05:07:06;;;;;;;0.20;0.20;;;16.50;99.90;;;;;;5078163;28;20252;-79
2022/08/07 05:09:39;;;;;;;0.20;0.20;;;16.50;99.90;;;;;;5071031;28;20204;-79
2022/08/07 05:12:08;;;;;;;0.20;0.20;;;16.60;99.90;;;;;;5068589;28;20257;-79
2022/08/07 05:14:44;;;;;;;0.10;0.10;;;16.60;99.90;;;;;;5069256;28;20331;-79
2022/08/07 05:17:14;;;;;;;0.10;0.10;;;16.70;99.90;;;;;;5071999;28;20646;-79
2022/08/07 05:19:53;;;;;;;0.23;0.23;;;16.80;99.90;;;;;;5070785;28;20177;-79
2022/08/07 05:22:21;;;;;;;0.10;0.10;;;16.90;99.90;;;;;;5065577;28;20189;-80
2022/08/07 05:24:50;;;;;;;0.20;0.20;;;17.00;99.90;;;;;;5065320;28;20185;-79
2022/08/07 05:27:17;;;;;;;0.17;0.17;;;17.00;99.90;;;;;;5058257;28;20185;-79
2022/08/07 05:29:44;;;;;;;0.10;0.10;;;17.10;99.90;;;;;;5073320;28;20189;-79
2022/08/07 05:32:10;;;;;;;0.50;0.50;;;17.20;99.90;;;;;;5061203;28;20225;-79
2022/08/07 05:34:39;;;;;;;0.10;0.10;;;17.20;99.90;;;;;;5063396;28;20251;-80
2022/08/07 05:37:05;;;;;;;0.10;0.10;;;17.30;99.90;;;;;;5070433;28;20236;-79
2022/08/07 05:39:30;;;;;;;0.30;0.30;;;17.40;99.90;;;;;;5064624;28;20234;-79
2022/08/07 05:41:56;;;;;;;2.37;0.40;;;17.50;99.90;;;;;;5068223;28;20185;-79
2022/08/07 05:44:22;;;;;;;0.30;0.30;;;17.50;99.90;;;;;;5067265;28;20195;-79
2022/08/07 05:46:49;;;;;;;0.30;0.30;;;17.60;99.90;;;;;;5060704;28;20552;-79
2022/08/07 05:49:16;;;;;;;0.47;0.30;;;17.80;99.90;;;;;;5060972;28;20658;-80
2022/08/07 05:51:43;;;;;;;0.30;0.30;;;17.80;99.90;;;;;;5068114;28;20291;-80
2022/08/07 05:54:10;;;;;;;0.20;0.20;;;17.90;99.90;;;;;;5086872;28;20611;-79
2022/08/07 05:56:39;;;;;;;0.10;0.10;;;18.00;99.90;;;;;;5066828;28;20177;-79
2022/08/07 05:59:08;;;;;;;0.20;0.20;;;18.20;99.90;;;;;;5058085;28;20732;-79
2022/08/07 06:01:37;;;;;;;0.23;0.23;;;18.30;99.90;;;;;;5074072;28;20204;-79
2022/08/07 06:04:04;;;;;;;0.10;0.10;;;18.40;99.90;;;;;;5083020;28;20236;-79
2022/08/07 06:06:32;;;;;;;0.17;0.17;;;18.50;99.90;;;;;;5061684;28;20185;-80
2022/08/07 06:09:00;;;;;;;0.10;0.10;;;18.60;99.90;;;;;;5088317;28;20194;-79
2022/08/07 06:11:26;;;;;;;0.10;0.10;;;18.80;99.90;;;;;;5064536;28;20626;-79
2022/08/07 06:13:52;;;;;;;0.20;0.20;;;18.90;99.90;;;;;;5069533;28;20201;-79
2022/08/07 06:16:21;;;;;;;0.20;0.20;;;18.90;99.90;;;;;;5057149;28;20637;-79
2022/08/07 06:18:47;;;;;;;0.10;0.10;;;19.10;99.90;;;;;;5069308;28;20182;-79
2022/08/07 06:21:14;;;;;;;0.20;0.20;;;19.10;99.90;;;;;;5065487;28;20650;-80
2022/08/07 06:23:40;;;;;;;0.20;0.20;;;19.20;99.90;;;;;;5073076;28;20241;-79
2022/08/07 06:26:10;;;;;;;0.20;0.20;;;19.30;99.90;;;;;;5070043;28;20738;-80
2022/08/07 06:28:50;;;;;;;0.10;0.10;;;19.40;99.90;;;;;;5068392;28;20181;-80
2022/08/07 06:31:16;;;;;;;0.20;0.20;;;19.50;99.90;;;;;;5071150;28;20200;-80
2022/08/07 06:33:43;;;;;;;0.10;0.10;;;19.80;99.90;;;;;;5075969;28;20205;-80
2022/08/07 06:36:09;;;;;;;0.17;0.17;;;19.70;99.90;;;;;;5092815;28;20213;-80
2022/08/07 06:38:35;;;;;;;0.20;0.20;;;19.90;99.90;;;;;;5074989;28;20185;-80
2022/08/07 06:41:03;;;;;;;0.20;0.20;;;19.90;99.90;;;;;;5070279;28;20697;-79
2022/08/07 06:43:34;;;;;;;0.10;0.10;;;19.80;99.90;;;;;;5068582;28;20212;-79
2022/08/07 06:46:03;;;;;;;0.20;0.20;;;19.80;99.90;;;;;;5085271;28;20192;-79
2022/08/07 06:48:28;;;;;;;0.10;0.10;;;19.90;99.90;;;;;;5067668;28;20287;-79
2022/08/07 06:50:58;;;;;;;0.20;0.20;;;20.00;99.90;;;;;;5068655;28;20299;-79
2022/08/07 06:53:26;;;;;;;0.10;0.10;;;20.00;99.90;;;;;;5070881;28;20197;-80
2022/08/07 06:55:54;;;;;;;0.10;0.10;;;20.20;99.90;;;;;;5067451;28;20233;-79
2022/08/07 06:58:21;;;;;;;0.17;0.17;;;20.40;99.90;;;;;;5072712;28;20181;-80
2022/08/07 07:00:47;;;;;;;0.30;0.30;;;20.40;99.90;;;;;;5073304;28;20188;-80
2022/08/07 07:03:14;;;;;;;0.17;0.17;;;20.40;99.90;;;;;;5065280;28;20208;-80
2022/08/07 07:05:39;;;;;;;0.17;0.17;;;20.40;99.90;;;;;;5067447;28;20213;-80
2022/08/07 07:08:07;;;;;;;0.17;0.17;;;20.40;99.90;;;;;;5072390;28;20240;-80
2022/08/07 07:10:33;;;;;;;0.27;0.27;;;20.70;99.90;;;;;;5069918;28;20205;-79
2022/08/07 07:13:11;;;;;;;0.30;0.30;;;20.60;99.90;;;;;;5072892;28;20201;-79
2022/08/07 07:15:43;;;;;;;0.20;0.20;;;20.60;99.90;;;;;;5088956;28;20205;-80
2022/08/07 07:18:18;;;;;;;0.63;0.37;;;20.80;99.90;;;;;;5071067;28;20177;-80
2022/08/07 07:20:52;;;;;;;0.20;0.20;;;20.80;99.90;;;;;;5073377;28;20218;-79
2022/08/07 07:23:18;;;;;;;0.30;0.30;;;20.90;99.90;;;;;;5070434;28;20224;-79
2022/08/07 07:25:47;;;;;;;0.10;0.10;;;21.30;99.90;;;;;;5072628;28;20191;-79
2022/08/07 07:28:38;;;;;;;0.20;0.20;;;21.20;99.90;;;;;;5087833;28;20189;-80
2022/08/07 07:31:17;;;;;;;0.47;0.47;;;21.30;99.90;;;;;;5068940;28;20235;-80
2022/08/07 07:33:44;;;;;;;0.20;0.20;;;21.30;99.90;;;;;;5068933;28;20197;-79
2022/08/07 07:36:11;;;;;;;0.33;0.20;;;21.40;99.90;;;;;;5071430;28;20187;-80
2022/08/07 07:38:39;;;;;;;0.20;0.20;;;21.40;99.90;;;;;;5071357;28;20177;-79
2022/08/07 07:41:08;;;;;;;0.13;0.13;;;21.50;99.90;;;;;;5071922;28;20212;-80
2022/08/07 07:43:39;;;;;;;0.20;0.20;;;21.30;99.90;;;;;;5068728;28;20205;-79
2022/08/07 07:46:06;;;;;;;0.20;0.20;;;21.40;99.90;;;;;;5073885;28;20411;-79
2022/08/07 07:48:33;;;;;;;0.30;0.30;;;21.40;99.90;;;;;;5071307;28;20239;-80
2022/08/07 07:51:01;;;;;;;0.20;0.20;;;21.50;99.90;;;;;;5074417;28;20205;-79
2022/08/07 07:53:29;;;;;;;0.20;0.20;;;21.50;99.90;;;;;;5071864;28;20663;-80
2022/08/07 07:55:58;;;;;;;0.10;0.10;;;21.40;99.90;;;;;;5073471;28;20185;-79
2022/08/07 07:58:28;;;;;;;0.30;0.30;;;21.30;99.90;;;;;;5076114;28;20184;-77
2022/08/07 08:00:54;;;;;;;0.40;0.40;;;22.00;99.90;;;;;;5067339;28;20288;-80
2022/08/07 08:03:22;;;;;;;0.10;0.10;;;21.90;99.90;;;;;;5074314;28;20208;-80
2022/08/07 08:05:49;;;;;;;0.40;0.40;;;22.30;99.90;;;;;;5065818;28;20204;-80
2022/08/07 08:08:16;;;;;;;0.20;0.20;;;22.60;99.90;;;;;;5070372;28;20184;-80
2022/08/07 08:10:42;;;;;;;0.20;0.20;;;22.40;99.90;;;;;;5074067;28;20212;-80
2022/08/07 08:13:09;;;;;;;0.20;0.20;;;22.40;99.90;;;;;;5066067;28;20200;-80
2022/08/07 08:15:38;;;;;;;0.20;0.20;;;22.30;99.90;;;;;;5069311;28;20173;-81
2022/08/07 08:18:09;;;;;;;0.40;0.40;;;22.70;99.90;;;;;;5068165;28;20173;-80
2022/08/07 08:20:37;;;;;;;0.63;0.30;;;22.40;99.90;;;;;;5074527;28;20268;-80
2022/08/07 08:28:39;;;;;;;0.20;0.20;;;22.70;99.90;;;;;;5068616;28;20327;-80
2022/08/07 08:31:09;;;;;;;0.30;0.30;;;23.10;99.90;;;;;;5075140;28;20216;-80
2022/08/07 08:33:37;;;;;;;0.20;0.20;;;22.70;99.90;;;;;;5068864;28;20194;-80
2022/08/07 08:36:05;;;;;;;0.20;0.20;;;22.70;99.90;;;;;;5074955;28;20177;-80
2022/08/07 08:38:34;;;;;;;0.50;0.27;;;22.70;99.90;;;;;;5069185;28;20661;-80
2022/08/07 08:41:28;;;;;;;0.20;0.20;;;22.70;99.90;;;;;;5068419;28;20227;-80
2022/08/07 08:44:06;;;;;;;0.20;0.20;;;22.70;99.90;;;;;;5072370;28;20208;-80
2022/08/07 08:46:39;;;;;;;0.20;0.20;;;23.10;99.90;;;;;;5069659;28;20177;-80
2022/08/07 08:49:26;;;;;;;0.20;0.20;;;23.60;99.90;;;;;;5064499;28;20197;-80
2022/08/07 08:52:13;;;;;;;0.23;0.23;;;24.00;99.90;;;;;;5075980;28;20208;-80
2022/08/07 08:54:51;;;;;;;0.30;0.30;;;23.90;99.90;;;;;;5069484;28;20182;-80
2022/08/07 08:57:28;;;;;;;0.20;0.20;;;24.30;99.90;;;;;;5071489;28;20173;-80
2022/08/07 09:00:00;;;;;;;0.20;0.20;;;23.60;99.90;;;;;;5065644;28;20169;-80
2022/08/07 09:02:52;;;;;;;0.20;0.20;;;23.70;99.90;;;;;;5069297;28;20255;-80
2022/08/07 09:05:46;;;;;;;0.27;0.27;;;23.60;99.90;;;;;;5070426;28;20725;-79
2022/08/07 09:08:52;;;;;;;0.20;0.20;;;23.40;99.90;;;;;;5075866;28;20558;-80
2022/08/07 09:11:38;;;;;;;0.30;0.30;;;23.40;99.90;;;;;;5056922;28;20239;-79
2022/08/07 09:14:18;;;;;;;0.20;0.20;;;23.80;99.90;;;;;;5072338;28;20748;-80
2022/08/07 09:17:03;;;;;;;0.20;0.20;;;23.50;99.90;;;;;;5072920;28;20284;-80
2022/08/07 09:19:44;;;;;;;0.20;0.20;;;24.00;99.90;;;;;;5088898;28;20273;-79
2022/08/07 09:22:47;;;;;;;0.20;0.20;;;24.00;99.90;;;;;;5072813;28;20199;-79
2022/08/07 09:25:23;;;;;;;0.37;0.37;;;24.40;99.90;;;;;;5078962;28;20182;-79
2022/08/07 09:28:02;;;;;;;0.20;0.20;;;24.80;99.90;;;;;;5078281;28;20181;-79
2022/08/07 09:30:32;;;;;;;0.30;0.20;;;24.70;99.90;;;;;;5068555;28;20284;-80
2022/08/07 09:33:36;;;;;;;0.30;0.30;;;24.30;99.90;;;;;;5068845;28;20204;-79
2022/08/07 09:36:13;;;;;;;0.57;0.40;;;24.30;99.90;;;;;;5074518;28;20212;-79
2022/08/07 09:39:16;;;;;;;0.27;0.27;;;24.30;99.90;;;;;;5075136;28;20181;-80
2022/08/07 09:41:58;;;;;;;0.20;0.20;;;24.60;99.90;;;;;;5093911;28;20185;-80
2022/08/07 09:44:38;;;;;;;0.20;0.20;;;24.40;99.90;;;;;;5089560;28;20209;-80
2022/08/07 09:47:32;;;;;;;0.30;0.30;;;23.90;99.90;;;;;;5084982;28;20701;-80
2022/08/07 09:50:32;;;;;;;0.20;0.20;;;24.10;99.90;;;;;;5093808;28;20368;-80
2022/08/07 09:53:01;;;;;;;0.33;0.33;;;24.30;99.90;;;;;;5078100;28;20351;-80
2022/08/07 09:55:41;;;;;;;0.20;0.20;;;24.70;99.90;;;;;;5086831;28;20181;-80
2022/08/07 09:58:41;;;;;;;0.37;0.30;;;24.50;99.90;;;;;;5077226;28;20181;-80
2022/08/07 10:01:49;;;;;;;0.23;0.23;;;25.30;99.90;;;;;;5081018;28;20197;-80
2022/08/07 10:04:36;;;;;;;0.53;0.53;;;25.30;99.90;;;;;;5072432;28;20247;-80
2022/08/07 10:07:17;;;;;;;0.20;0.20;;;25.40;99.90;;;;;;5076960;28;20192;-79
2022/08/07 10:09:45;;;;;;;0.50;0.43;;;25.40;99.90;;;;;;5077295;28;20196;-79
2022/08/07 10:12:48;;;;;;;0.20;0.20;;;25.00;99.90;;;;;;5066573;28;20784;-80
2022/08/07 10:15:34;;;;;;;0.30;0.30;;;24.60;99.90;;;;;;5075401;28;20181;-80
2022/08/07 10:18:21;;;;;;;0.20;0.20;;;24.60;99.90;;;;;;5073257;28;20185;-80
2022/08/07 10:21:15;;;;;;;1.20;1.10;;;25.30;99.90;;;;;;5071851;28;20193;-80
2022/08/07 10:24:18;;;;;;;0.30;0.30;;;25.70;99.90;;;;;;5074319;28;20204;-79
2022/08/07 10:27:11;;;;;;;0.43;0.37;;;25.00;99.90;;;;;;5077380;28;20195;-79
2022/08/07 10:30:05;;;;;;;1.10;0.40;;;25.20;99.90;;;;;;5094235;28;20208;-80
2022/08/07 10:32:48;;;;;;;0.43;0.43;;;25.80;99.90;;;;;;5070958;28;20291;-79
2022/08/07 10:35:32;;;;;;;0.97;0.37;;;26.10;99.90;;;;;;5071296;28;20199;-80
2022/08/07 10:38:06;;;;;;;0.40;0.40;;;26.40;99.90;;;;;;5093850;28;20212;-79
2022/08/07 10:41:06;;;;;;;0.27;0.27;;;26.20;99.90;;;;;;5066485;28;20188;-80
2022/08/07 10:43:42;;;;;;;3.30;0.40;;;26.20;99.90;;;;;;5077800;28;20209;-79
2022/08/07 10:46:34;;;;;;;0.30;0.30;;;25.70;99.90;;;;;;5071857;28;20650;-80
2022/08/07 10:49:02;;;;;;;0.30;0.30;;;25.60;99.90;;;;;;5066849;28;20193;-79
2022/08/07 10:51:41;;;;;;;0.10;0.10;;;25.30;99.90;;;;;;5077606;28;20224;-79
2022/08/07 10:54:19;;;;;;;0.30;0.30;;;26.10;99.90;;;;;;5074128;28;20679;-79
2022/08/07 10:56:55;;;;;;;0.10;0.10;;;26.50;99.90;;;;;;5072149;28;20185;-80
2022/08/07 10:59:39;;;;;;;0.20;0.20;;;26.90;99.90;;;;;;5071916;28;20213;-79
2022/08/07 11:02:28;;;;;;;0.50;0.50;;;27.00;99.90;;;;;;5076354;28;20240;-80
2022/08/07 11:05:11;;;;;;;0.27;0.27;;;26.60;99.90;;;;;;5083247;28;20339;-79
2022/08/07 11:07:58;;;;;;;0.20;0.20;;;27.00;99.90;;;;;;5073567;28;20264;-80
2022/08/07 11:10:36;;;;;;;0.50;0.40;;;27.20;99.90;;;;;;5089311;28;20283;-80
2022/08/07 11:13:13;;;;;;;0.20;0.20;;;26.50;99.90;;;;;;5074007;28;20272;-80
2022/08/07 11:15:39;;;;;;;0.50;0.50;;;25.70;99.90;;;;;;5067617;28;20172;-80
2022/08/07 11:18:16;;;;;;;0.20;0.20;;;26.50;99.90;;;;;;5068075;28;20177;-79
2022/08/07 11:21:05;;;;;;;0.30;0.30;;;26.60;99.90;;;;;;5070833;28;20188;-80
2022/08/07 11:23:56;;;;;;;0.27;0.27;;;26.40;99.90;;;;;;5065550;28;20627;-80
2022/08/07 11:26:46;;;;;;;0.30;0.30;;;26.30;99.90;;;;;;5071155;28;20208;-80
2022/08/07 11:29:25;;;;;;;0.30;0.30;;;26.40;99.90;;;;;;5064344;28;20932;-80
2022/08/07 11:32:09;;;;;;;0.30;0.30;;;26.70;99.90;;;;;;5074876;28;20212;-80
2022/08/07 11:34:52;;;;;;;0.33;0.33;;;26.50;99.90;;;;;;5072425;28;20224;-79
2022/08/07 11:37:46;;;;;;;0.47;0.40;;;26.30;99.90;;;;;;5073390;28;20692;-80
2022/08/07 11:40:30;;;;;;;0.20;0.20;;;26.50;99.90;;;;;;5070952;28;20177;-79
2022/08/07 11:42:59;;;;;;;0.20;0.20;;;27.10;99.90;;;;;;5069119;28;20200;-79
2022/08/07 11:45:43;;;;;;;0.30;0.30;;;27.20;99.90;;;;;;5065995;28;20417;-79
2022/08/07 11:48:27;;;;;;;0.30;0.30;;;27.00;99.90;;;;;;5065931;28;20247;-79
2022/08/07 11:51:12;;;;;;;0.33;0.33;;;27.10;99.90;;;;;;5084935;28;20217;-79
2022/08/07 11:53:58;;;;;;;0.63;0.50;;;26.00;99.90;;;;;;5070877;28;20637;-80
2022/08/07 11:56:52;;;;;;;0.30;0.30;;;25.70;99.90;;;;;;5074950;28;20189;-80
2022/08/07 11:59:37;;;;;;;0.20;0.20;;;26.30;99.90;;;;;;5066747;28;20176;-80
2022/08/07 12:02:41;;;;;;;0.40;0.40;;;27.00;99.90;;;;;;5066396;28;20180;-79
2022/08/07 12:05:41;;;;;;;0.30;0.30;;;27.60;99.90;;;;;;5063469;28;20247;-79
2022/08/07 12:08:22;;;;;;;0.37;0.37;;;27.60;99.90;;;;;;5068495;28;20196;-79
2022/08/07 12:10:54;;;;;;;0.28;0.28;;;26.80;99.90;;;;;;5082796;28;20265;-80
2022/08/07 12:13:28;;;;;;;0.50;0.50;;;26.90;99.90;;;;;;5070027;28;20211;-80
2022/08/07 12:16:18;;;;;;;0.33;0.33;;;27.10;99.90;;;;;;5070382;28;20792;-80
2022/08/07 12:18:47;;;;;;;0.30;0.30;;;26.30;99.90;;;;;;5075003;28;20239;-80
2022/08/07 12:21:39;;;;;;;0.30;0.30;;;26.60;99.90;;;;;;5088374;28;20186;-79
2022/08/07 12:24:24;;;;;;;0.20;0.20;;;26.60;99.90;;;;;;5084638;28;20208;-80
2022/08/07 12:27:08;;;;;;;0.20;0.20;;;26.20;99.90;;;;;;5067521;28;20654;-79
2022/08/07 12:29:50;;;;;;;0.10;0.10;;;26.00;99.90;;;;;;5072693;28;20180;-79
2022/08/07 12:32:50;;;;;;;0.20;0.20;;;26.70;99.90;;;;;;5074603;28;20223;-80
2022/08/07 12:35:18;;;;;;;0.30;0.30;;;27.50;99.90;;;;;;5061946;28;20185;-80
2022/08/07 12:37:50;;;;;;;0.30;0.30;;;27.20;99.90;;;;;;5090420;28;20189;-80
2022/08/07 12:40:23;;;;;;;0.30;0.30;;;27.10;99.90;;;;;;5064592;28;20213;-80
2022/08/07 12:42:55;;;;;;;0.30;0.30;;;26.80;99.90;;;;;;5077708;28;20205;-80
2022/08/07 12:45:25;;;;;;;0.33;0.33;;;26.90;99.90;;;;;;5071194;28;20237;-80
2022/08/07 12:48:05;;;;;;;0.30;0.30;;;26.80;99.90;;;;;;5072146;28;20196;-80
2022/08/07 12:50:40;;;;;;;0.47;0.47;;;26.40;99.90;;;;;;5068120;28;20297;-80
2022/08/07 12:53:36;;;;;;;0.40;0.40;;;26.40;99.90;;;;;;5075858;28;20210;-79
2022/08/07 12:56:24;;;;;;;0.20;0.20;;;26.10;99.90;;;;;;5094638;28;20185;-79
2022/08/07 12:58:51;;;;;;;0.20;0.20;;;26.40;99.90;;;;;;5070557;28;20280;-80
2022/08/07 13:01:41;;;;;;;0.20;0.20;;;26.80;99.90;;;;;;5068391;28;20185;-80
2022/08/07 13:04:38;;;;;;;0.20;0.20;;;27.30;99.90;;;;;;5091964;28;20212;-79
2022/08/07 13:07:24;;;;;;;0.20;0.20;;;27.90;99.90;;;;;;5078172;28;20177;-80
2022/08/07 13:10:22;;;;;;;0.35;0.35;;;28.30;99.90;;;;;;5082461;28;20189;-80
2022/08/07 13:13:14;;;;;;;0.40;0.40;;;27.90;99.90;;;;;;5054752;28;20243;-80
2022/08/07 13:15:48;;;;;;;0.80;0.40;;;28.10;99.90;;;;;;5070955;28;20253;-80
2022/08/07 13:18:49;;;;;;;0.20;0.20;;;27.30;99.90;;;;;;5073604;28;20216;-80
2022/08/07 13:21:24;;;;;;;0.60;0.60;;;27.50;99.90;;;;;;5065214;28;20178;-80
2022/08/07 13:24:07;;;;;;;0.27;0.27;;;27.20;99.90;;;;;;5090355;28;20205;-80
2022/08/07 13:26:50;;;;;;;0.30;0.30;;;27.20;99.90;;;;;;5075482;28;21856;-79